sensor_id;sensor_type;location;lat;lon;timestamp;P1;durP1;ratioP1;P2;durP2;ratioP2
20857;SDS011;10589;53.636;10.012;2024-02-23T04:45:07;1.85;;;0.50;;
20857;SDS011;10589;53.636;10.012;2024-02-23T04:47:34;2.20;;;0.80;;
20857;SDS011;10589;53.636;10.012;2024-02-23T04:50:00;2.37;;;0.50;;
20857;SDS011;10589;53.636;10.012;2024-02-23T04:52:27;1.67;;;0.80;;
20857;SDS011;10589;53.636;10.012;2024-02-23T04:54:53;0.70;;;0.67;;
20857;SDS011;10589;53.636;10.012;2024-02-23T04:57:18;1.37;;;0.63;;
20857;SDS011;10589;53.636;10.012;2024-02-23T04:59:44;3.20;;;0.80;;
20857;SDS011;10589;53.636;10.012;2024-02-23T05:02:09;1.90;;;0.60;;
20857;SDS011;10589;53.636;10.012;2024-02-23T05:04:35;2.00;;;0.80;;
20857;SDS011;10589;53.636;10.012;2024-02-23T05:07:00;4.93;;;0.90;;
20857;SDS011;10589;53.636;10.012;2024-02-23T05:09:26;3.47;;;1.13;;
20857;SDS011;10589;53.636;10.012;2024-02-23T05:11:52;2.00;;;1.00;;
20857;SDS011;10589;53.636;10.012;2024-02-23T05:14:17;4.73;;;1.23;;
20857;SDS011;10589;53.636;10.012;2024-02-23T05:16:43;4.03;;;1.47;;
20857;SDS011;10589;53.636;10.012;2024-02-23T05:19:09;2.27;;;1.00;;
20857;SDS011;10589;53.636;10.012;2024-02-23T05:21:34;3.17;;;1.30;;
20857;SDS011;10589;53.636;10.012;2024-02-23T05:24:00;4.93;;;1.40;;
20857;SDS011;10589;53.636;10.012;2024-02-23T05:26:26;3.50;;;1.23;;
20857;SDS011;10589;53.636;10.012;2024-02-23T05:28:51;2.30;;;1.27;;
20857;SDS011;10589;53.636;10.012;2024-02-23T05:31:17;4.57;;;1.17;;
20857;SDS011;10589;53.636;10.012;2024-02-23T05:33:43;5.50;;;1.30;;
20857;SDS011;10589;53.636;10.012;2024-02-23T05:36:08;2.87;;;1.27;;
20857;SDS011;10589;53.636;10.012;2024-02-23T05:38:34;6.77;;;1.27;;
20857;SDS011;10589;53.636;10.012;2024-02-23T05:41:00;3.43;;;1.47;;
20857;SDS011;10589;53.636;10.012;2024-02-23T05:43:26;11.50;;;1.40;;
20857;SDS011;10589;53.636;10.012;2024-02-23T05:45:51;5.03;;;1.47;;
20857;SDS011;10589;53.636;10.012;2024-02-23T05:48:17;5.17;;;1.20;;
20857;SDS011;10589;53.636;10.012;2024-02-23T05:50:44;5.73;;;1.50;;
20857;SDS011;10589;53.636;10.012;2024-02-23T05:53:09;2.87;;;1.30;;
20857;SDS011;10589;53.636;10.012;2024-02-23T05:55:35;2.87;;;1.40;;
20857;SDS011;10589;53.636;10.012;2024-02-23T05:58:00;6.77;;;1.50;;
20857;SDS011;10589;53.636;10.012;2024-02-23T06:00:26;2.80;;;1.27;;
20857;SDS011;10589;53.636;10.012;2024-02-23T06:02:51;5.47;;;1.27;;
20857;SDS011;10589;53.636;10.012;2024-02-23T06:05:17;4.50;;;1.30;;
20857;SDS011;10589;53.636;10.012;2024-02-23T06:07:43;3.80;;;1.43;;
20857;SDS011;10589;53.636;10.012;2024-02-23T06:10:08;2.03;;;0.87;;
20857;SDS011;10589;53.636;10.012;2024-02-23T06:12:34;4.50;;;1.10;;
20857;SDS011;10589;53.636;10.012;2024-02-23T06:14:59;5.20;;;1.03;;
20857;SDS011;10589;53.636;10.012;2024-02-23T06:17:25;3.70;;;0.90;;
20857;SDS011;10589;53.636;10.012;2024-02-23T06:19:51;1.93;;;0.80;;
20857;SDS011;10589;53.636;10.012;2024-02-23T06:22:18;4.47;;;1.10;;
20857;SDS011;10589;53.636;10.012;2024-02-23T06:24:46;3.63;;;1.00;;
20857;SDS011;10589;53.636;10.012;2024-02-23T06:27:12;1.70;;;0.90;;
20857;SDS011;10589;53.636;10.012;2024-02-23T06:29:38;4.07;;;1.17;;
20857;SDS011;10589;53.636;10.012;2024-02-23T06:32:04;1.87;;;1.20;;
20857;SDS011;10589;53.636;10.012;2024-02-23T06:34:30;3.10;;;1.10;;
20857;SDS011;10589;53.636;10.012;2024-02-23T06:36:55;3.33;;;0.90;;
20857;SDS011;10589;53.636;10.012;2024-02-23T06:39:21;6.93;;;0.97;;
20857;SDS011;10589;53.636;10.012;2024-02-23T06:41:46;3.03;;;1.30;;
20857;SDS011;10589;53.636;10.012;2024-02-23T06:44:12;2.90;;;1.10;;
20857;SDS011;10589;53.636;10.012;2024-02-23T06:46:38;3.47;;;1.27;;
20857;SDS011;10589;53.636;10.012;2024-02-23T06:49:03;3.63;;;1.10;;
20857;SDS011;10589;53.636;10.012;2024-02-23T06:51:30;4.07;;;1.37;;
20857;SDS011;10589;53.636;10.012;2024-02-23T06:53:56;8.40;;;1.47;;
20857;SDS011;10589;53.636;10.012;2024-02-23T06:56:22;5.13;;;1.57;;
20857;SDS011;10589;53.636;10.012;2024-02-23T06:58:48;2.50;;;1.23;;
20857;SDS011;10589;53.636;10.012;2024-02-23T07:01:14;2.63;;;1.00;;
20857;SDS011;10589;53.636;10.012;2024-02-23T07:03:39;4.53;;;1.23;;
20857;SDS011;10589;53.636;10.012;2024-02-23T07:06:07;2.40;;;1.13;;
20857;SDS011;10589;53.636;10.012;2024-02-23T07:08:35;4.70;;;1.20;;
20857;SDS011;10589;53.636;10.012;2024-02-23T07:11:00;5.00;;;1.27;;
20857;SDS011;10589;53.636;10.012;2024-02-23T07:13:26;5.90;;;1.50;;
20857;SDS011;10589;53.636;10.012;2024-02-23T07:15:52;3.03;;;1.23;;
20857;SDS011;10589;53.636;10.012;2024-02-23T07:18:17;4.83;;;1.40;;
20857;SDS011;10589;53.636;10.012;2024-02-23T07:20:43;4.83;;;1.60;;
20857;SDS011;10589;53.636;10.012;2024-02-23T07:23:08;4.20;;;1.50;;
20857;SDS011;10589;53.636;10.012;2024-02-23T07:25:34;4.23;;;1.40;;
20857;SDS011;10589;53.636;10.012;2024-02-23T07:28:00;3.80;;;1.40;;
20857;SDS011;10589;53.636;10.012;2024-02-23T07:30:26;3.53;;;1.73;;
20857;SDS011;10589;53.636;10.012;2024-02-23T07:32:52;5.17;;;1.83;;
20857;SDS011;10589;53.636;10.012;2024-02-23T07:35:17;2.90;;;1.80;;
20857;SDS011;10589;53.636;10.012;2024-02-23T07:37:43;5.40;;;1.60;;
20857;SDS011;10589;53.636;10.012;2024-02-23T07:40:08;4.10;;;2.10;;
20857;SDS011;10589;53.636;10.012;2024-02-23T07:42:35;4.20;;;1.47;;
20857;SDS011;10589;53.636;10.012;2024-02-23T07:45:02;4.97;;;1.57;;
20857;SDS011;10589;53.636;10.012;2024-02-23T07:47:29;4.67;;;1.63;;
20857;SDS011;10589;53.636;10.012;2024-02-23T07:49:55;3.57;;;1.60;;
20857;SDS011;10589;53.636;10.012;2024-02-23T07:52:21;5.63;;;1.90;;
20857;SDS011;10589;53.636;10.012;2024-02-23T07:54:49;4.30;;;2.00;;
20857;SDS011;10589;53.636;10.012;2024-02-23T07:57:17;5.07;;;1.93;;
20857;SDS011;10589;53.636;10.012;2024-02-23T07:59:43;4.20;;;1.87;;
20857;SDS011;10589;53.636;10.012;2024-02-23T08:02:08;6.07;;;1.80;;
20857;SDS011;10589;53.636;10.012;2024-02-23T08:04:34;4.77;;;1.83;;
20857;SDS011;10589;53.636;10.012;2024-02-23T08:06:59;4.27;;;1.97;;
20857;SDS011;10589;53.636;10.012;2024-02-23T08:09:25;9.33;;;1.80;;
20857;SDS011;10589;53.636;10.012;2024-02-23T08:11:51;5.50;;;1.80;;
20857;SDS011;10589;53.636;10.012;2024-02-23T08:14:16;4.07;;;1.70;;
20857;SDS011;10589;53.636;10.012;2024-02-23T08:16:42;4.90;;;1.50;;
20857;SDS011;10589;53.636;10.012;2024-02-23T08:19:08;5.73;;;2.10;;
20857;SDS011;10589;53.636;10.012;2024-02-23T08:21:33;3.93;;;1.50;;
20857;SDS011;10589;53.636;10.012;2024-02-23T08:23:59;4.37;;;1.40;;
20857;SDS011;10589;53.636;10.012;2024-02-23T08:26:24;4.10;;;1.53;;
20857;SDS011;10589;53.636;10.012;2024-02-23T08:28:50;8.53;;;1.57;;
20857;SDS011;10589;53.636;10.012;2024-02-23T08:31:16;3.97;;;1.50;;
20857;SDS011;10589;53.636;10.012;2024-02-23T08:33:45;7.87;;;1.40;;
20857;SDS011;10589;53.636;10.012;2024-02-23T08:36:12;5.77;;;1.73;;
20857;SDS011;10589;53.636;10.012;2024-02-23T08:38:37;3.60;;;1.30;;
20857;SDS011;10589;53.636;10.012;2024-02-23T08:41:03;5.03;;;1.43;;
20857;SDS011;10589;53.636;10.012;2024-02-23T08:43:29;3.83;;;1.40;;
20857;SDS011;10589;53.636;10.012;2024-02-23T08:45:55;3.47;;;1.33;;
20857;SDS011;10589;53.636;10.012;2024-02-23T08:48:20;4.10;;;1.27;;
20857;SDS011;10589;53.636;10.012;2024-02-23T08:50:46;3.40;;;1.20;;
20857;SDS011;10589;53.636;10.012;2024-02-23T08:53:12;3.20;;;1.30;;
20857;SDS011;10589;53.636;10.012;2024-02-23T08:55:37;7.63;;;1.47;;
20857;SDS011;10589;53.636;10.012;2024-02-23T08:58:03;4.03;;;1.43;;
20857;SDS011;10589;53.636;10.012;2024-02-23T09:00:30;2.60;;;1.00;;
20857;SDS011;10589;53.636;10.012;2024-02-23T09:02:56;5.00;;;1.23;;
20857;SDS011;10589;53.636;10.012;2024-02-23T09:05:22;3.00;;;1.20;;
20857;SDS011;10589;53.636;10.012;2024-02-23T09:07:48;4.83;;;1.30;;
20857;SDS011;10589;53.636;10.012;2024-02-23T09:10:13;10.07;;;1.47;;
20857;SDS011;10589;53.636;10.012;2024-02-23T09:12:39;11.10;;;1.80;;
20857;SDS011;10589;53.636;10.012;2024-02-23T09:15:05;8.33;;;1.40;;
20857;SDS011;10589;53.636;10.012;2024-02-23T09:17:31;4.57;;;1.00;;
20857;SDS011;10589;53.636;10.012;2024-02-23T09:19:56;6.07;;;1.50;;
20857;SDS011;10589;53.636;10.012;2024-02-23T09:22:22;6.70;;;1.33;;
20857;SDS011;10589;53.636;10.012;2024-02-23T09:24:48;4.57;;;1.37;;
20857;SDS011;10589;53.636;10.012;2024-02-23T09:27:14;7.40;;;1.90;;
20857;SDS011;10589;53.636;10.012;2024-02-23T09:29:40;5.50;;;1.07;;
20857;SDS011;10589;53.636;10.012;2024-02-23T09:32:07;6.80;;;1.13;;
20857;SDS011;10589;53.636;10.012;2024-02-23T09:34:33;4.67;;;1.37;;
20857;SDS011;10589;53.636;10.012;2024-02-23T09:36:58;5.57;;;1.30;;
20857;SDS011;10589;53.636;10.012;2024-02-23T09:39:24;4.90;;;1.30;;
20857;SDS011;10589;53.636;10.012;2024-02-23T09:41:51;4.00;;;1.13;;
20857;SDS011;10589;53.636;10.012;2024-02-23T09:44:19;4.13;;;0.93;;
20857;SDS011;10589;53.636;10.012;2024-02-23T09:46:47;6.67;;;1.13;;
20857;SDS011;10589;53.636;10.012;2024-02-23T09:49:13;4.57;;;1.00;;
20857;SDS011;10589;53.636;10.012;2024-02-23T09:51:41;4.33;;;1.10;;
20857;SDS011;10589;53.636;10.012;2024-02-23T09:54:07;5.63;;;1.20;;
20857;SDS011;10589;53.636;10.012;2024-02-23T09:56:33;4.63;;;1.10;;
20857;SDS011;10589;53.636;10.012;2024-02-23T09:59:02;6.30;;;1.27;;
20857;SDS011;10589;53.636;10.012;2024-02-23T10:01:31;6.87;;;1.00;;
20857;SDS011;10589;53.636;10.012;2024-02-23T10:03:58;6.10;;;1.33;;
20857;SDS011;10589;53.636;10.012;2024-02-23T10:06:26;4.80;;;1.10;;
20857;SDS011;10589;53.636;10.012;2024-02-23T10:08:55;7.03;;;1.10;;
20857;SDS011;10589;53.636;10.012;2024-02-23T10:11:21;5.50;;;1.37;;
20857;SDS011;10589;53.636;10.012;2024-02-23T10:13:48;5.67;;;1.50;;
20857;SDS011;10589;53.636;10.012;2024-02-23T10:16:20;5.77;;;1.10;;
20857;SDS011;10589;53.636;10.012;2024-02-23T10:18:47;3.53;;;1.30;;
20857;SDS011;10589;53.636;10.012;2024-02-23T10:21:14;6.83;;;1.40;;
20857;SDS011;10589;53.636;10.012;2024-02-23T10:23:40;4.47;;;1.40;;
20857;SDS011;10589;53.636;10.012;2024-02-23T10:26:06;4.63;;;1.57;;
20857;SDS011;10589;53.636;10.012;2024-02-23T10:28:34;5.67;;;1.37;;
20857;SDS011;10589;53.636;10.012;2024-02-23T10:31:00;7.47;;;1.30;;
20857;SDS011;10589;53.636;10.012;2024-02-23T10:33:26;9.07;;;1.20;;
20857;SDS011;10589;53.636;10.012;2024-02-23T10:35:55;6.27;;;1.30;;
20857;SDS011;10589;53.636;10.012;2024-02-23T10:38:25;4.10;;;1.13;;
20857;SDS011;10589;53.636;10.012;2024-02-23T10:40:51;6.43;;;1.57;;
20857;SDS011;10589;53.636;10.012;2024-02-23T10:43:21;8.40;;;1.50;;
20857;SDS011;10589;53.636;10.012;2024-02-23T10:45:55;5.73;;;1.40;;
20857;SDS011;10589;53.636;10.012;2024-02-23T10:48:22;2.83;;;1.07;;
20857;SDS011;10589;53.636;10.012;2024-02-23T10:50:49;5.87;;;1.60;;
20857;SDS011;10589;53.636;10.012;2024-02-23T10:53:15;5.03;;;0.90;;
20857;SDS011;10589;53.636;10.012;2024-02-23T10:55:44;5.37;;;1.10;;
20857;SDS011;10589;53.636;10.012;2024-02-23T10:58:10;4.90;;;1.20;;
20857;SDS011;10589;53.636;10.012;2024-02-23T11:00:38;6.53;;;1.40;;
20857;SDS011;10589;53.636;10.012;2024-02-23T11:03:04;8.17;;;1.80;;
20857;SDS011;10589;53.636;10.012;2024-02-23T11:05:32;5.97;;;1.30;;
20857;SDS011;10589;53.636;10.012;2024-02-23T11:07:58;6.23;;;1.30;;
20857;SDS011;10589;53.636;10.012;2024-02-23T11:10:24;4.73;;;1.20;;
20857;SDS011;10589;53.636;10.012;2024-02-23T11:12:59;5.00;;;1.00;;
20857;SDS011;10589;53.636;10.012;2024-02-23T11:15:25;2.67;;;0.93;;
20857;SDS011;10589;53.636;10.012;2024-02-23T11:17:55;6.77;;;1.10;;
20857;SDS011;10589;53.636;10.012;2024-02-23T11:20:21;6.83;;;1.10;;
20857;SDS011;10589;53.636;10.012;2024-02-23T11:22:51;6.97;;;1.23;;
20857;SDS011;10589;53.636;10.012;2024-02-23T11:25:18;3.93;;;0.90;;
20857;SDS011;10589;53.636;10.012;2024-02-23T11:27:45;5.03;;;0.90;;
20857;SDS011;10589;53.636;10.012;2024-02-23T11:30:16;4.97;;;0.97;;
20857;SDS011;10589;53.636;10.012;2024-02-23T11:32:46;2.13;;;0.70;;
20857;SDS011;10589;53.636;10.012;2024-02-23T11:35:13;7.73;;;1.00;;
20857;SDS011;10589;53.636;10.012;2024-02-23T11:37:54;6.20;;;0.80;;
20857;SDS011;10589;53.636;10.012;2024-02-23T11:40:28;9.67;;;1.03;;
20857;SDS011;10589;53.636;10.012;2024-02-23T11:42:55;4.23;;;1.10;;
20857;SDS011;10589;53.636;10.012;2024-02-23T11:45:21;4.27;;;1.10;;
20857;SDS011;10589;53.636;10.012;2024-02-23T11:47:47;7.27;;;1.33;;
20857;SDS011;10589;53.636;10.012;2024-02-23T11:50:13;3.27;;;0.90;;
20857;SDS011;10589;53.636;10.012;2024-02-23T11:52:40;7.40;;;1.00;;
20857;SDS011;10589;53.636;10.012;2024-02-23T11:55:06;8.17;;;1.00;;
20857;SDS011;10589;53.636;10.012;2024-02-23T11:57:33;2.87;;;0.80;;
20857;SDS011;10589;53.636;10.012;2024-02-23T12:00:00;3.47;;;1.03;;
20857;SDS011;10589;53.636;10.012;2024-02-23T12:02:28;3.97;;;0.97;;
20857;SDS011;10589;53.636;10.012;2024-02-23T12:04:53;4.80;;;0.90;;
20857;SDS011;10589;53.636;10.012;2024-02-23T12:07:19;4.33;;;0.83;;
20857;SDS011;10589;53.636;10.012;2024-02-23T12:09:46;4.63;;;0.80;;
20857;SDS011;10589;53.636;10.012;2024-02-23T12:12:12;5.10;;;1.03;;
20857;SDS011;10589;53.636;10.012;2024-02-23T12:14:39;3.47;;;0.90;;
20857;SDS011;10589;53.636;10.012;2024-02-23T12:17:05;3.13;;;0.93;;
20857;SDS011;10589;53.636;10.012;2024-02-23T12:19:37;3.27;;;0.77;;
20857;SDS011;10589;53.636;10.012;2024-02-23T12:22:05;4.23;;;0.83;;
20857;SDS011;10589;53.636;10.012;2024-02-23T12:24:31;2.20;;;0.80;;
20857;SDS011;10589;53.636;10.012;2024-02-23T12:26:57;2.27;;;0.70;;
20857;SDS011;10589;53.636;10.012;2024-02-23T12:29:23;7.40;;;1.23;;
20857;SDS011;10589;53.636;10.012;2024-02-23T12:31:49;2.60;;;0.70;;
20857;SDS011;10589;53.636;10.012;2024-02-23T12:34:15;3.83;;;0.70;;
20857;SDS011;10589;53.636;10.012;2024-02-23T12:36:41;1.53;;;0.60;;
20857;SDS011;10589;53.636;10.012;2024-02-23T12:39:08;1.97;;;0.80;;
20857;SDS011;10589;53.636;10.012;2024-02-23T12:41:33;1.93;;;0.73;;
20857;SDS011;10589;53.636;10.012;2024-02-23T12:43:59;4.83;;;0.90;;
20857;SDS011;10589;53.636;10.012;2024-02-23T12:46:24;4.03;;;0.90;;
20857;SDS011;10589;53.636;10.012;2024-02-23T12:48:50;6.20;;;0.80;;
20857;SDS011;10589;53.636;10.012;2024-02-23T12:51:16;2.60;;;0.70;;
20857;SDS011;10589;53.636;10.012;2024-02-23T12:53:42;2.67;;;0.80;;
20857;SDS011;10589;53.636;10.012;2024-02-23T12:56:12;2.10;;;0.70;;
20857;SDS011;10589;53.636;10.012;2024-02-23T12:58:39;1.87;;;0.60;;
20857;SDS011;10589;53.636;10.012;2024-02-23T13:01:06;1.47;;;0.57;;
20857;SDS011;10589;53.636;10.012;2024-02-23T13:03:33;1.60;;;0.80;;
20857;SDS011;10589;53.636;10.012;2024-02-23T13:05:59;2.87;;;0.70;;
20857;SDS011;10589;53.636;10.012;2024-02-23T13:08:25;4.03;;;0.83;;
20857;SDS011;10589;53.636;10.012;2024-02-23T13:10:51;2.23;;;0.70;;
20857;SDS011;10589;53.636;10.012;2024-02-23T13:13:19;4.70;;;0.80;;
20857;SDS011;10589;53.636;10.012;2024-02-23T13:15:45;3.30;;;0.60;;
20857;SDS011;10589;53.636;10.012;2024-02-23T13:18:12;3.97;;;0.70;;
20857;SDS011;10589;53.636;10.012;2024-02-23T13:20:38;5.23;;;0.70;;
20857;SDS011;10589;53.636;10.012;2024-02-23T13:23:04;2.10;;;0.60;;
20857;SDS011;10589;53.636;10.012;2024-02-23T13:25:33;2.63;;;0.70;;
20857;SDS011;10589;53.636;10.012;2024-02-23T13:27:59;2.47;;;0.80;;
20857;SDS011;10589;53.636;10.012;2024-02-23T13:30:25;3.13;;;0.70;;
20857;SDS011;10589;53.636;10.012;2024-02-23T13:32:50;2.60;;;0.80;;
20857;SDS011;10589;53.636;10.012;2024-02-23T13:35:17;3.47;;;0.80;;
20857;SDS011;10589;53.636;10.012;2024-02-23T13:37:42;2.80;;;0.70;;
20857;SDS011;10589;53.636;10.012;2024-02-23T13:40:09;3.57;;;0.60;;
20857;SDS011;10589;53.636;10.012;2024-02-23T13:42:35;2.23;;;0.73;;
20857;SDS011;10589;53.636;10.012;2024-02-23T13:45:03;3.70;;;0.70;;
20857;SDS011;10589;53.636;10.012;2024-02-23T13:47:30;3.43;;;0.90;;
20857;SDS011;10589;53.636;10.012;2024-02-23T13:49:56;2.00;;;0.73;;
20857;SDS011;10589;53.636;10.012;2024-02-23T13:52:21;2.90;;;0.60;;
20857;SDS011;10589;53.636;10.012;2024-02-23T13:54:47;1.57;;;0.50;;
20857;SDS011;10589;53.636;10.012;2024-02-23T13:57:13;2.00;;;0.63;;
20857;SDS011;10589;53.636;10.012;2024-02-23T13:59:38;5.03;;;0.70;;
20857;SDS011;10589;53.636;10.012;2024-02-23T14:02:04;5.23;;;0.70;;
20857;SDS011;10589;53.636;10.012;2024-02-23T14:04:29;2.33;;;0.70;;
20857;SDS011;10589;53.636;10.012;2024-02-23T14:06:55;6.10;;;0.70;;
20857;SDS011;10589;53.636;10.012;2024-02-23T14:09:21;1.90;;;0.60;;
20857;SDS011;10589;53.636;10.012;2024-02-23T14:11:47;2.30;;;0.50;;
20857;SDS011;10589;53.636;10.012;2024-02-23T14:14:12;2.33;;;0.60;;
20857;SDS011;10589;53.636;10.012;2024-02-23T14:16:39;1.87;;;0.70;;
20857;SDS011;10589;53.636;10.012;2024-02-23T14:19:05;4.53;;;0.63;;
20857;SDS011;10589;53.636;10.012;2024-02-23T14:21:30;1.97;;;0.50;;
20857;SDS011;10589;53.636;10.012;2024-02-23T14:23:56;1.87;;;0.50;;
20857;SDS011;10589;53.636;10.012;2024-02-23T14:26:22;2.27;;;0.53;;
20857;SDS011;10589;53.636;10.012;2024-02-23T14:28:48;2.53;;;0.70;;
20857;SDS011;10589;53.636;10.012;2024-02-23T14:31:14;3.23;;;0.60;;
20857;SDS011;10589;53.636;10.012;2024-02-23T14:33:40;5.23;;;0.80;;
20857;SDS011;10589;53.636;10.012;2024-02-23T14:36:06;4.47;;;0.77;;
20857;SDS011;10589;53.636;10.012;2024-02-23T14:38:32;2.53;;;0.40;;
20857;SDS011;10589;53.636;10.012;2024-02-23T14:40:57;2.17;;;0.60;;
20857;SDS011;10589;53.636;10.012;2024-02-23T14:43:24;3.07;;;0.70;;
20857;SDS011;10589;53.636;10.012;2024-02-23T14:45:49;2.80;;;0.60;;
20857;SDS011;10589;53.636;10.012;2024-02-23T14:48:17;1.80;;;0.40;;
20857;SDS011;10589;53.636;10.012;2024-02-23T14:50:45;2.40;;;0.60;;
20857;SDS011;10589;53.636;10.012;2024-02-23T14:53:10;3.53;;;0.60;;
20857;SDS011;10589;53.636;10.012;2024-02-23T14:55:37;2.60;;;1.00;;
20857;SDS011;10589;53.636;10.012;2024-02-23T14:58:02;5.03;;;0.67;;
20857;SDS011;10589;53.636;10.012;2024-02-23T15:00:28;1.87;;;0.50;;
20857;SDS011;10589;53.636;10.012;2024-02-23T15:02:55;4.90;;;0.83;;
20857;SDS011;10589;53.636;10.012;2024-02-23T15:05:22;1.30;;;0.60;;
20857;SDS011;10589;53.636;10.012;2024-02-23T15:07:48;4.60;;;0.60;;
20857;SDS011;10589;53.636;10.012;2024-02-23T15:10:14;2.23;;;0.50;;
20857;SDS011;10589;53.636;10.012;2024-02-23T15:12:40;2.33;;;0.60;;
20857;SDS011;10589;53.636;10.012;2024-02-23T15:15:06;3.50;;;0.60;;
20857;SDS011;10589;53.636;10.012;2024-02-23T15:17:32;1.93;;;0.70;;
20857;SDS011;10589;53.636;10.012;2024-02-23T15:19:58;3.03;;;0.50;;
20857;SDS011;10589;53.636;10.012;2024-02-23T15:22:24;3.37;;;0.60;;
20857;SDS011;10589;53.636;10.012;2024-02-23T15:24:51;2.43;;;0.93;;
20857;SDS011;10589;53.636;10.012;2024-02-23T15:27:17;1.90;;;0.60;;
20857;SDS011;10589;53.636;10.012;2024-02-23T15:29:43;1.30;;;0.60;;
20857;SDS011;10589;53.636;10.012;2024-02-23T15:32:09;3.80;;;0.90;;
20857;SDS011;10589;53.636;10.012;2024-02-23T15:34:37;1.57;;;0.60;;
20857;SDS011;10589;53.636;10.012;2024-02-23T15:37:03;0.80;;;0.50;;
20857;SDS011;10589;53.636;10.012;2024-02-23T15:39:29;2.33;;;0.60;;
20857;SDS011;10589;53.636;10.012;2024-02-23T15:41:55;2.67;;;0.60;;
20857;SDS011;10589;53.636;10.012;2024-02-23T15:44:21;4.10;;;0.50;;
20857;SDS011;10589;53.636;10.012;2024-02-23T15:46:47;1.90;;;0.60;;
20857;SDS011;10589;53.636;10.012;2024-02-23T15:49:12;2.83;;;0.80;;
20857;SDS011;10589;53.636;10.012;2024-02-23T15:51:38;3.17;;;0.73;;
20857;SDS011;10589;53.636;10.012;2024-02-23T15:54:04;2.27;;;0.80;;
20857;SDS011;10589;53.636;10.012;2024-02-23T15:56:30;3.60;;;0.80;;
20857;SDS011;10589;53.636;10.012;2024-02-23T15:58:56;2.07;;;0.73;;
20857;SDS011;10589;53.636;10.012;2024-02-23T16:01:21;1.53;;;0.77;;
20857;SDS011;10589;53.636;10.012;2024-02-23T16:03:48;1.67;;;0.80;;
20857;SDS011;10589;53.636;10.012;2024-02-23T16:06:13;3.40;;;0.70;;
20857;SDS011;10589;53.636;10.012;2024-02-23T16:08:43;1.87;;;0.50;;
20857;SDS011;10589;53.636;10.012;2024-02-23T16:11:10;2.47;;;0.70;;
20857;SDS011;10589;53.636;10.012;2024-02-23T16:13:38;2.67;;;0.67;;
20857;SDS011;10589;53.636;10.012;2024-02-23T16:16:07;1.93;;;0.73;;
20857;SDS011;10589;53.636;10.012;2024-02-23T16:18:35;2.27;;;0.80;;
20857;SDS011;10589;53.636;10.012;2024-02-23T16:21:02;2.67;;;0.43;;
20857;SDS011;10589;53.636;10.012;2024-02-23T16:23:28;2.17;;;0.50;;
20857;SDS011;10589;53.636;10.012;2024-02-23T16:25:54;1.67;;;0.53;;
20857;SDS011;10589;53.636;10.012;2024-02-23T16:28:20;3.30;;;0.60;;
20857;SDS011;10589;53.636;10.012;2024-02-23T16:30:46;2.13;;;0.60;;
20857;SDS011;10589;53.636;10.012;2024-02-23T16:33:12;2.67;;;0.60;;
20857;SDS011;10589;53.636;10.012;2024-02-23T16:35:38;2.50;;;0.53;;
20857;SDS011;10589;53.636;10.012;2024-02-23T16:38:04;3.10;;;0.70;;
20857;SDS011;10589;53.636;10.012;2024-02-23T16:40:29;3.87;;;0.60;;
20857;SDS011;10589;53.636;10.012;2024-02-23T16:42:56;1.90;;;0.50;;
20857;SDS011;10589;53.636;10.012;2024-02-23T16:45:22;1.67;;;0.57;;
20857;SDS011;10589;53.636;10.012;2024-02-23T16:47:48;3.63;;;0.70;;
20857;SDS011;10589;53.636;10.012;2024-02-23T16:50:14;3.93;;;0.80;;
20857;SDS011;10589;53.636;10.012;2024-02-23T16:52:40;2.93;;;0.43;;
20857;SDS011;10589;53.636;10.012;2024-02-23T16:55:06;1.50;;;0.73;;
20857;SDS011;10589;53.636;10.012;2024-02-23T16:57:32;1.97;;;0.60;;
20857;SDS011;10589;53.636;10.012;2024-02-23T16:59:58;4.23;;;0.60;;
20857;SDS011;10589;53.636;10.012;2024-02-23T17:02:24;1.80;;;0.60;;
20857;SDS011;10589;53.636;10.012;2024-02-23T17:04:49;6.43;;;0.80;;
20857;SDS011;10589;53.636;10.012;2024-02-23T17:07:15;3.63;;;1.10;;
20857;SDS011;10589;53.636;10.012;2024-02-23T17:09:40;2.67;;;0.83;;
20857;SDS011;10589;53.636;10.012;2024-02-23T17:12:11;3.33;;;0.60;;
20857;SDS011;10589;53.636;10.012;2024-02-23T17:14:43;2.70;;;0.63;;
20857;SDS011;10589;53.636;10.012;2024-02-23T17:17:09;4.77;;;0.90;;
20857;SDS011;10589;53.636;10.012;2024-02-23T17:19:35;2.67;;;0.70;;
20857;SDS011;10589;53.636;10.012;2024-02-23T17:22:01;4.03;;;0.87;;
20857;SDS011;10589;53.636;10.012;2024-02-23T17:24:26;1.23;;;0.47;;
20857;SDS011;10589;53.636;10.012;2024-02-23T17:26:52;1.87;;;0.50;;
20857;SDS011;10589;53.636;10.012;2024-02-23T17:29:18;1.27;;;0.50;;
20857;SDS011;10589;53.636;10.012;2024-02-23T17:31:43;1.43;;;0.47;;
20857;SDS011;10589;53.636;10.012;2024-02-23T17:34:09;2.17;;;0.40;;
20857;SDS011;10589;53.636;10.012;2024-02-23T17:36:36;2.83;;;0.60;;
20857;SDS011;10589;53.636;10.012;2024-02-23T17:39:07;6.47;;;0.97;;
20857;SDS011;10589;53.636;10.012;2024-02-23T17:41:33;3.03;;;0.70;;
20857;SDS011;10589;53.636;10.012;2024-02-23T17:43:59;3.00;;;0.80;;
20857;SDS011;10589;53.636;10.012;2024-02-23T17:46:24;3.07;;;1.10;;
20857;SDS011;10589;53.636;10.012;2024-02-23T17:48:51;2.70;;;0.90;;
20857;SDS011;10589;53.636;10.012;2024-02-23T17:51:16;2.67;;;1.10;;
20857;SDS011;10589;53.636;10.012;2024-02-23T17:53:42;3.50;;;1.10;;
20857;SDS011;10589;53.636;10.012;2024-02-23T17:56:08;2.03;;;1.17;;
20857;SDS011;10589;53.636;10.012;2024-02-23T17:58:35;4.90;;;1.20;;
20857;SDS011;10589;53.636;10.012;2024-02-23T18:01:01;4.70;;;1.40;;
20857;SDS011;10589;53.636;10.012;2024-02-23T18:03:28;2.80;;;1.20;;
20857;SDS011;10589;53.636;10.012;2024-02-23T18:05:53;3.97;;;1.30;;
20857;SDS011;10589;53.636;10.012;2024-02-23T18:08:19;3.73;;;1.30;;
20857;SDS011;10589;53.636;10.012;2024-02-23T18:10:45;3.57;;;1.10;;
20857;SDS011;10589;53.636;10.012;2024-02-23T18:13:10;5.00;;;1.50;;
20857;SDS011;10589;53.636;10.012;2024-02-23T18:15:37;5.10;;;1.93;;
20857;SDS011;10589;53.636;10.012;2024-02-23T18:18:03;2.37;;;1.30;;
20857;SDS011;10589;53.636;10.012;2024-02-23T18:20:29;4.57;;;1.70;;
20857;SDS011;10589;53.636;10.012;2024-02-23T18:22:55;5.37;;;1.57;;
20857;SDS011;10589;53.636;10.012;2024-02-23T18:25:22;4.10;;;2.00;;
20857;SDS011;10589;53.636;10.012;2024-02-23T18:27:48;8.63;;;3.10;;
20857;SDS011;10589;53.636;10.012;2024-02-23T18:30:14;4.93;;;1.90;;
20857;SDS011;10589;53.636;10.012;2024-02-23T18:32:40;4.17;;;2.33;;
20857;SDS011;10589;53.636;10.012;2024-02-23T18:35:06;9.13;;;2.80;;
20857;SDS011;10589;53.636;10.012;2024-02-23T18:37:33;4.67;;;2.47;;
20857;SDS011;10589;53.636;10.012;2024-02-23T18:40:06;11.10;;;2.63;;
20857;SDS011;10589;53.636;10.012;2024-02-23T18:42:32;7.13;;;2.10;;
20857;SDS011;10589;53.636;10.012;2024-02-23T18:44:57;9.63;;;2.70;;
20857;SDS011;10589;53.636;10.012;2024-02-23T18:47:23;4.17;;;1.90;;
20857;SDS011;10589;53.636;10.012;2024-02-23T18:49:49;3.63;;;1.40;;
20857;SDS011;10589;53.636;10.012;2024-02-23T18:52:15;4.23;;;1.47;;
20857;SDS011;10589;53.636;10.012;2024-02-23T18:54:41;5.07;;;1.50;;
20857;SDS011;10589;53.636;10.012;2024-02-23T18:57:07;6.70;;;1.90;;
20857;SDS011;10589;53.636;10.012;2024-02-23T18:59:34;5.17;;;1.40;;
20857;SDS011;10589;53.636;10.012;2024-02-23T19:02:00;4.57;;;1.80;;
20857;SDS011;10589;53.636;10.012;2024-02-23T19:04:25;5.33;;;1.50;;
20857;SDS011;10589;53.636;10.012;2024-02-23T19:06:51;4.93;;;1.90;;
20857;SDS011;10589;53.636;10.012;2024-02-23T19:09:17;9.17;;;1.67;;
20857;SDS011;10589;53.636;10.012;2024-02-23T19:11:43;3.97;;;1.47;;